Adair, Illinois
Current Conditions -  °F | °C
As of 12:15 AM on Saturday 25 Oct 2014 (Local Time) from KMQB Reporting Station
Clear Clear  
Wind Chill: 51°   Ceiling: Unl
Heat Index: 51°   Visibility: 10mi
Dew Point: 49°   Wind: 5mph
Humidity: 94%   Direction: 260°W
Pressure: 29.97"   Gusts: NA
Location:  40.42°N, 90.5°W
Report Text: KMQB 250515Z AUTO 26004KT 10SM CLR 11/10 A2997 RMK AO2 T01050096
Loading
Personal Weather Stations






























Interactive Weather Map
Tropical Storm Tracking
New forecast layout! Learn more

10-Day Weather Forecast

Advertisements
Track Severe Weather on mobile